Time;durP1;ratioP1;P1;durP2;ratioP2;P2;SDS_P1;SDS_P2;PMS_P1;PMS_P2;Temp;Humidity;BMP_temperature;BMP_pressure;BME280_temperature;BME280_humidity;BME280_pressure;Samples;Min_cycle;Max_cycle;Signal;HPM_P1;HPM_P2
2023/12/11 00:00:03;;;;;;;14.48;8.48;;;;;;;6.42;55.47;98907.53;4992195;28;20121;-75
2023/12/11 00:02:29;;;;;;;14.57;9.00;;;;;;;6.41;55.30;98898.09;4991685;28;20034;-75
2023/12/11 00:04:54;;;;;;;14.40;8.73;;;;;;;6.34;55.54;98895.84;4993522;28;20540;-74
2023/12/11 00:07:20;;;;;;;15.40;8.27;;;;;;;6.34;55.61;98897.59;4993043;28;20038;-75
2023/12/11 00:09:45;;;;;;;14.68;8.35;;;;;;;6.32;55.69;98900.28;4992958;28;20026;-74
2023/12/11 00:12:11;;;;;;;16.95;9.18;;;;;;;6.34;55.83;98902.78;4993309;28;20066;-75
2023/12/11 00:14:36;;;;;;;15.88;9.02;;;;;;;6.33;55.51;98907.13;4993076;28;20113;-74
2023/12/11 00:17:02;;;;;;;15.18;8.57;;;;;;;6.27;56.18;98888.50;4975849;28;20033;-75
2023/12/11 00:19:27;;;;;;;14.77;8.68;;;;;;;6.29;55.88;98908.25;4975839;28;20439;-75
2023/12/11 00:21:53;;;;;;;15.27;8.27;;;;;;;6.28;55.96;98909.16;4975658;28;20045;-74
2023/12/11 00:24:19;;;;;;;16.08;8.95;;;;;;;6.28;56.00;98914.34;4991477;28;20405;-75
2023/12/11 00:26:45;;;;;;;15.25;8.93;;;;;;;6.24;56.07;98918.03;4993019;28;20138;-74
2023/12/11 00:29:10;;;;;;;15.63;8.77;;;;;;;6.22;55.91;98924.22;4975562;28;20041;-74
2023/12/11 00:31:36;;;;;;;17.42;8.70;;;;;;;6.23;56.01;98926.72;4975342;28;20449;-76
2023/12/11 00:34:01;;;;;;;15.30;9.13;;;;;;;6.24;56.24;98935.34;4975279;28;20493;-74
2023/12/11 00:36:27;;;;;;;14.65;8.45;;;;;;;6.23;56.42;98933.66;4991713;28;20042;-75
2023/12/11 00:38:52;;;;;;;15.93;8.93;;;;;;;6.19;55.86;98942.53;4975077;28;20049;-77
2023/12/11 00:41:18;;;;;;;14.88;8.77;;;;;;;6.21;55.97;98943.28;4975379;28;20030;-75
2023/12/11 00:43:43;;;;;;;13.98;8.48;;;;;;;6.20;56.04;98949.38;4991626;28;20486;-76
2023/12/11 00:46:22;;;;;;;17.40;8.55;;;;;;;6.19;55.98;98945.13;4992238;28;20126;-75
2023/12/11 00:48:47;;;;;;;15.52;8.50;;;;;;;6.18;56.23;98946.03;4975610;28;20048;-74
2023/12/11 00:51:20;;;;;;;15.02;8.57;;;;;;;6.13;55.98;98946.28;4992423;28;20042;-76
2023/12/11 00:53:46;;;;;;;15.20;8.95;;;;;;;6.12;56.06;98939.44;4958980;28;20038;-75
2023/12/11 00:56:11;;;;;;;17.65;7.75;;;;;;;6.15;55.78;98947.03;4959015;28;20058;-74
2023/12/11 00:58:37;;;;;;;14.73;8.32;;;;;;;6.12;56.05;98945.47;4975066;28;20191;-75
2023/12/11 01:01:03;;;;;;;13.73;8.40;;;;;;;6.12;56.05;98939.44;4991570;28;20406;-76
2023/12/11 01:03:28;;;;;;;13.35;8.45;;;;;;;6.08;56.10;98938.75;4991504;28;20018;-74
2023/12/11 01:05:53;;;;;;;14.98;8.55;;;;;;;6.07;56.11;98952.66;4975729;28;20474;-75
2023/12/11 01:08:19;;;;;;;14.85;9.00;;;;;;;6.08;55.86;98961.25;4958422;28;20069;-74
2023/12/11 01:10:45;;;;;;;14.50;8.63;;;;;;;6.03;56.24;98956.31;4975568;28;20038;-75
2023/12/11 01:13:10;;;;;;;14.25;8.20;;;;;;;6.05;56.18;98962.25;4975098;28;20046;-74
2023/12/11 01:15:35;;;;;;;14.00;8.50;;;;;;;6.05;56.30;98961.44;4992524;28;20026;-75
2023/12/11 01:18:01;;;;;;;16.63;8.43;;;;;;;6.03;56.32;98952.91;4990916;28;20097;-74
2023/12/11 01:20:27;;;;;;;15.27;8.88;;;;;;;5.98;55.93;98950.56;4990637;28;20572;-75
2023/12/11 01:22:53;;;;;;;14.32;8.40;;;;;;;5.95;56.39;98938.56;4990841;28;20038;-75
2023/12/11 01:25:18;;;;;;;13.45;8.10;;;;;;;5.94;56.61;98936.06;4992510;28;20030;-75
2023/12/11 01:27:44;;;;;;;14.80;7.97;;;;;;;5.97;56.16;98926.38;4975002;28;20030;-74
2023/12/11 01:30:09;;;;;;;15.38;8.70;;;;;;;5.96;56.50;98922.16;4991285;28;20084;-74
2023/12/11 01:32:35;;;;;;;15.18;8.40;;;;;;;5.95;55.91;98917.00;4990421;28;20188;-76
2023/12/11 01:35:00;;;;;;;12.23;7.55;;;;;;;5.91;56.56;98910.31;4990642;28;20035;-75
2023/12/11 01:37:26;;;;;;;15.05;8.98;;;;;;;5.90;56.42;98919.84;4990968;28;20026;-76
2023/12/11 01:39:51;;;;;;;14.88;7.95;;;;;;;5.91;56.64;98916.31;4958697;28;20053;-75
2023/12/11 01:42:17;;;;;;;14.98;8.55;;;;;;;5.87;56.36;98907.06;4976958;28;20034;-74
2023/12/11 01:44:43;;;;;;;13.05;7.80;;;;;;;5.86;56.22;98904.56;4962159;28;20466;-74
2023/12/11 01:47:08;;;;;;;12.30;7.28;;;;;;;5.89;56.72;98900.03;4995667;28;20058;-75
2023/12/11 01:49:35;;;;;;;12.20;7.57;;;;;;;5.88;56.40;98890.59;4995958;28;20387;-74
2023/12/11 01:52:00;;;;;;;15.80;7.60;;;;;;;5.89;56.38;98881.06;4978362;28;20034;-75
2023/12/11 01:54:26;;;;;;;12.25;7.25;;;;;;;5.86;56.31;98874.28;5010452;28;20023;-75
2023/12/11 01:56:51;;;;;;;12.80;8.05;;;;;;;5.80;56.30;98867.69;4978274;28;20042;-74
2023/12/11 01:59:17;;;;;;;11.15;7.18;;;;;;;5.86;56.19;98881.22;4978151;28;20497;-74
2023/12/11 02:01:43;;;;;;;13.18;7.97;;;;;;;5.84;56.27;98880.50;4962139;28;20132;-75
2023/12/11 02:04:09;;;;;;;13.25;8.50;;;;;;;5.79;56.05;98860.84;4977939;28;20038;-75
2023/12/11 02:06:35;;;;;;;12.18;7.78;;;;;;;5.82;56.28;98859.84;4994367;28;20041;-74
2023/12/11 02:09:00;;;;;;;13.35;8.25;;;;;;;5.77;56.57;98852.31;4993721;28;20042;-75
2023/12/11 02:11:26;;;;;;;14.32;7.95;;;;;;;5.79;56.09;98860.84;4961778;28;20411;-74
2023/12/11 02:13:51;;;;;;;14.32;7.88;;;;;;;5.76;56.27;98865.38;4995165;28;20084;-75
2023/12/11 02:16:17;;;;;;;12.18;7.53;;;;;;;5.76;55.97;98875.72;4977430;28;20510;-75
2023/12/11 02:18:43;;;;;;;12.38;7.45;;;;;;;5.74;56.69;98886.16;4961728;28;20890;-74
2023/12/11 02:21:10;;;;;;;14.43;8.50;;;;;;;5.67;56.10;98868.44;4977840;28;20035;-75
2023/12/11 02:23:47;;;;;;;13.82;7.88;;;;;;;5.72;56.83;98874.22;4961781;28;20564;-74
2023/12/11 02:26:14;;;;;;;13.35;8.00;;;;;;;5.61;56.04;98865.28;4994012;28;20030;-75
2023/12/11 02:28:39;;;;;;;12.45;7.68;;;;;;;5.64;56.58;98884.16;4995138;28;20061;-74
2023/12/11 02:31:05;;;;;;;11.88;7.20;;;;;;;5.61;56.57;98891.19;4993189;28;20047;-74
2023/12/11 02:33:30;;;;;;;14.20;7.75;;;;;;;5.60;56.57;98894.66;4993518;28;20069;-75
2023/12/11 02:35:56;;;;;;;13.00;7.60;;;;;;;5.61;56.37;98898.94;4977139;28;20042;-75
2023/12/11 02:38:21;;;;;;;11.82;6.78;;;;;;;5.59;56.68;98895.56;4993280;28;20057;-74
2023/12/11 02:40:47;;;;;;;11.07;6.78;;;;;;;5.58;56.14;98901.69;4993589;28;20045;-76
2023/12/11 02:43:12;;;;;;;11.85;7.38;;;;;;;5.55;56.72;98896.69;4993214;28;20046;-75
2023/12/11 02:45:38;;;;;;;12.52;7.20;;;;;;;5.53;56.25;98885.53;4993249;28;20030;-74
2023/12/11 02:48:04;;;;;;;11.20;6.22;;;;;;;5.50;56.32;98892.66;4976734;28;20054;-75
2023/12/11 02:50:30;;;;;;;10.48;6.57;;;;;;;5.47;56.55;98893.66;4960654;28;20038;-75
2023/12/11 02:52:59;;;;;;;10.35;6.40;;;;;;;5.45;56.48;98890.28;4992611;28;20105;-74
2023/12/11 02:55:24;;;;;;;13.55;6.93;;;;;;;5.42;55.87;98872.34;4977281;28;20026;-76
2023/12/11 02:57:53;;;;;;;11.23;6.78;;;;;;;5.39;56.55;98872.50;4976966;28;20037;-75
2023/12/11 03:00:18;;;;;;;13.30;7.25;;;;;;;5.34;56.23;98882.25;4977339;28;20499;-74
2023/12/11 03:02:44;;;;;;;11.50;6.93;;;;;;;5.28;56.04;98883.41;4993474;28;20115;-74
2023/12/11 03:05:09;;;;;;;12.18;6.43;;;;;;;5.23;56.76;98885.41;4976494;28;20508;-76
2023/12/11 03:07:35;;;;;;;10.18;6.15;;;;;;;5.26;56.82;98887.84;4976854;28;20490;-76
2023/12/11 03:10:00;;;;;;;11.20;6.68;;;;;;;5.22;56.58;98876.81;4994310;28;20023;-74
2023/12/11 03:12:26;;;;;;;12.23;6.88;;;;;;;5.21;56.19;98871.72;4993278;28;20070;-75
2023/12/11 03:14:51;;;;;;;10.75;6.47;;;;;;;5.19;56.40;98860.63;4992882;28;20113;-74
2023/12/11 03:17:17;;;;;;;9.98;6.15;;;;;;;5.15;56.56;98866.88;4993069;28;20033;-75
2023/12/11 03:19:42;;;;;;;11.82;6.90;;;;;;;5.12;56.42;98862.66;4976294;28;20125;-75
2023/12/11 03:22:08;;;;;;;12.98;7.38;;;;;;;5.08;56.81;98867.19;4976282;28;20038;-75
2023/12/11 03:24:33;;;;;;;12.82;7.53;;;;;;;5.03;56.64;98855.41;4976071;28;20061;-75
2023/12/11 03:26:59;;;;;;;12.90;7.60;;;;;;;5.04;56.65;98867.41;4976604;28;20080;-74
2023/12/11 03:29:25;;;;;;;12.38;7.30;;;;;;;4.99;56.88;98862.47;4994158;28;20037;-75
2023/12/11 03:31:50;;;;;;;13.10;7.20;;;;;;;4.94;56.45;98855.88;4976356;28;20042;-75
2023/12/11 03:34:16;;;;;;;12.10;7.05;;;;;;;4.95;56.70;98862.69;4991894;28;20049;-75
2023/12/11 03:36:41;;;;;;;13.23;7.15;;;;;;;4.84;56.73;98860.69;4975777;28;20129;-75
2023/12/11 03:39:07;;;;;;;11.98;7.15;;;;;;;4.89;56.40;98863.88;4992831;28;20034;-75
2023/12/11 03:41:33;;;;;;;9.90;6.15;;;;;;;4.84;56.62;98871.84;4992489;28;20061;-75
2023/12/11 03:43:59;;;;;;;14.07;7.15;;;;;;;4.85;56.64;98870.09;4959490;28;20411;-74
2023/12/11 03:46:24;;;;;;;11.13;6.82;;;;;;;4.76;56.69;98866.25;4975949;28;20520;-74
2023/12/11 03:48:50;;;;;;;12.02;6.72;;;;;;;4.79;56.42;98881.59;4975852;28;20080;-74
2023/12/11 03:51:15;;;;;;;12.48;6.82;;;;;;;4.78;56.61;98876.50;4992523;28;20501;-74
2023/12/11 03:53:41;;;;;;;11.25;6.93;;;;;;;4.76;56.84;98897.28;4992090;28;20037;-75
2023/12/11 03:56:06;;;;;;;11.60;6.90;;;;;;;4.72;56.57;98906.09;4975058;28;20085;-75
2023/12/11 03:58:32;;;;;;;12.05;7.20;;;;;;;4.67;56.41;98906.31;4976080;28;20045;-76
2023/12/11 04:00:57;;;;;;;13.88;6.80;;;;;;;4.71;56.81;98912.16;4959539;28;20042;-74
2023/12/11 04:03:23;;;;;;;11.00;6.88;;;;;;;4.68;56.87;98907.13;4993314;28;20072;-75
2023/12/11 04:05:48;;;;;;;10.90;6.68;;;;;;;4.65;56.56;98915.91;4993053;28;20037;-74
2023/12/11 04:08:14;;;;;;;9.70;6.80;;;;;;;4.66;56.61;98920.16;4975814;28;20375;-74
2023/12/11 04:10:39;;;;;;;11.98;6.65;;;;;;;4.65;56.91;98922.81;4992127;28;20051;-74
2023/12/11 04:13:05;;;;;;;11.13;6.78;;;;;;;4.64;57.03;98939.25;4991785;28;20501;-75
2023/12/11 04:15:30;;;;;;;15.65;7.15;;;;;;;4.61;56.45;98935.06;4992809;28;20033;-75
2023/12/11 04:17:56;;;;;;;13.57;7.55;;;;;;;4.61;56.55;98926.47;4991716;28;20038;-76
2023/12/11 04:20:21;;;;;;;10.85;6.60;;;;;;;4.59;56.51;98930.88;4991863;28;20037;-75
2023/12/11 04:22:47;;;;;;;11.52;6.93;;;;;;;4.58;56.86;98936.97;4976053;28;20053;-75
2023/12/11 04:25:12;;;;;;;10.35;6.70;;;;;;;4.53;56.83;98926.84;4992969;28;20513;-74
2023/12/11 04:27:38;;;;;;;11.43;6.53;;;;;;;4.51;56.85;98923.50;4992822;28;20034;-75
2023/12/11 04:30:06;;;;;;;11.32;6.32;;;;;;;4.54;57.08;98931.13;4960034;28;20037;-75
2023/12/11 04:32:32;;;;;;;11.60;6.65;;;;;;;4.52;56.68;98936.34;4976238;28;20403;-74
2023/12/11 04:34:57;;;;;;;11.02;6.25;;;;;;;4.49;57.00;98938.22;4992773;28;20030;-75
2023/12/11 04:37:23;;;;;;;11.93;6.88;;;;;;;4.46;56.92;98928.88;4975483;28;20089;-74
2023/12/11 04:39:48;;;;;;;11.95;6.70;;;;;;;4.49;57.17;98938.22;4959592;28;20120;-75
2023/12/11 04:42:14;;;;;;;10.38;6.43;;;;;;;4.47;56.90;98933.13;4991553;28;20041;-76
2023/12/11 04:44:39;;;;;;;11.02;6.22;;;;;;;4.42;56.79;98929.94;4991479;28;20482;-74
2023/12/11 04:47:05;;;;;;;12.93;6.93;;;;;;;4.44;56.87;98946.19;4958775;28;20051;-75
2023/12/11 04:49:30;;;;;;;11.50;6.10;;;;;;;4.42;57.00;98936.88;4959287;28;20045;-75
2023/12/11 04:51:56;;;;;;;11.70;6.30;;;;;;;4.43;56.75;98938.53;4974929;28;20133;-74
2023/12/11 04:54:21;;;;;;;10.25;6.07;;;;;;;4.38;56.87;98943.94;4959379;28;20030;-75
2023/12/11 04:56:47;;;;;;;11.65;6.25;;;;;;;4.41;57.19;98935.19;4974852;28;20481;-75
2023/12/11 04:59:12;;;;;;;10.63;6.60;;;;;;;4.38;57.19;98938.78;4975226;28;20046;-74
2023/12/11 05:01:38;;;;;;;10.45;6.03;;;;;;;4.35;57.08;98931.16;4959248;28;20038;-75
2023/12/11 05:04:03;;;;;;;10.15;6.30;;;;;;;4.32;56.83;98942.47;4975310;28;20034;-75
2023/12/11 05:06:29;;;;;;;9.60;5.85;;;;;;;4.29;57.06;98939.19;4991215;28;20042;-75
2023/12/11 05:08:54;;;;;;;9.65;5.75;;;;;;;4.35;56.75;98955.25;4974849;28;20042;-75
2023/12/11 05:11:20;;;;;;;10.68;5.90;;;;;;;4.34;56.95;98950.97;4991406;28;20049;-74
2023/12/11 05:13:46;;;;;;;10.13;6.50;;;;;;;4.30;56.82;98946.88;4974783;28;20033;-75
2023/12/11 05:16:11;;;;;;;10.65;5.90;;;;;;;4.27;57.08;98949.59;4960121;28;20042;-74
2023/12/11 05:18:38;;;;;;;9.30;5.43;;;;;;;4.29;57.08;98960.69;4978848;28;20034;-75
2023/12/11 05:21:08;;;;;;;8.38;5.25;;;;;;;4.29;57.41;98971.03;4979275;28;20034;-75
2023/12/11 05:23:34;;;;;;;9.70;5.93;;;;;;;4.27;56.84;98977.19;4962906;28;20041;-75
2023/12/11 05:25:59;;;;;;;9.82;5.88;;;;;;;4.28;56.90;98986.63;4978951;28;20034;-76
2023/12/11 05:28:25;;;;;;;9.73;5.88;;;;;;;4.25;56.78;98976.41;4979364;28;20038;-75
2023/12/11 05:30:50;;;;;;;10.75;6.47;;;;;;;4.27;57.29;98967.69;4961955;28;20042;-74
2023/12/11 05:33:16;;;;;;;11.48;6.43;;;;;;;4.28;57.08;98982.28;4978758;28;20034;-75
2023/12/11 05:35:41;;;;;;;12.75;6.20;;;;;;;4.28;56.92;98981.44;4994944;28;20030;-75
2023/12/11 05:38:07;;;;;;;10.88;6.22;;;;;;;4.29;56.94;98988.31;4995944;28;20042;-76
2023/12/11 05:40:32;;;;;;;12.38;6.07;;;;;;;4.26;56.80;98978.94;4978411;28;20417;-75
2023/12/11 05:42:58;;;;;;;9.93;5.80;;;;;;;4.32;56.44;98983.00;4978333;28;20038;-75
2023/12/11 05:45:23;;;;;;;9.52;5.68;;;;;;;4.34;56.70;98983.75;4962637;28;20117;-75
2023/12/11 05:47:49;;;;;;;9.10;5.75;;;;;;;4.33;56.79;98977.75;4962149;28;20066;-75
2023/12/11 05:50:14;;;;;;;9.50;6.07;;;;;;;4.56;56.12;98980.16;4994280;28;20034;-75
2023/12/11 05:52:40;;;;;;;8.95;5.85;;;;;;;4.75;56.13;98969.78;4978281;28;20030;-76
2023/12/11 05:55:06;;;;;;;10.25;6.32;;;;;;;5.11;55.25;98976.59;4978105;28;20065;-76
2023/12/11 05:57:31;;;;;;;9.65;6.10;;;;;;;5.47;54.38;98979.09;4978192;28;20428;-75
2023/12/11 05:59:57;;;;;;;10.40;6.10;;;;;;;5.88;53.69;98970.06;4978496;28;20037;-76
2023/12/11 06:02:24;;;;;;;11.68;6.20;;;;;;;6.55;52.34;98975.97;4978078;28;20041;-75
2023/12/11 06:04:50;;;;;;;10.27;6.00;;;;;;;7.20;50.54;98972.28;4994565;28;20026;-76
2023/12/11 06:07:16;;;;;;;9.95;5.95;;;;;;;7.87;49.76;98980.38;4995738;28;20034;-75
2023/12/11 06:09:42;;;;;;;9.10;6.03;;;;;;;8.65;47.77;98974.66;4978385;28;20069;-75
2023/12/11 06:12:09;;;;;;;8.88;5.53;;;;;;;9.40;46.47;98968.84;4995513;28;20120;-76
2023/12/11 06:14:38;;;;;;;9.38;5.32;;;;;;;10.17;44.66;98980.13;4995575;28;20054;-75
2023/12/11 06:17:03;;;;;;;9.65;5.55;;;;;;;10.93;43.26;98973.81;4977674;28;20039;-76
2023/12/11 06:19:29;;;;;;;9.35;6.10;;;;;;;11.76;41.31;98974.53;4995242;28;20109;-76
2023/12/11 06:21:54;;;;;;;8.07;5.78;;;;;;;12.61;39.75;98973.94;4993493;28;20046;-76
2023/12/11 06:24:20;;;;;;;9.73;6.00;;;;;;;13.52;38.18;98976.97;4995329;28;20097;-76
2023/12/11 06:26:46;;;;;;;8.27;5.82;;;;;;;14.24;37.04;98971.72;4962049;28;20038;-74
2023/12/11 06:29:11;;;;;;;8.93;5.97;;;;;;;15.03;35.50;98957.69;4978111;28;20604;-75
2023/12/11 06:31:37;;;;;;;10.50;6.47;;;;;;;15.74;34.36;98961.69;4961017;28;20418;-75
2023/12/11 06:34:03;;;;;;;10.02;6.18;;;;;;;16.36;33.37;98956.66;4977700;28;20026;-76
2023/12/11 06:36:28;;;;;;;8.73;6.70;;;;;;;17.07;32.38;98967.41;4977571;28;20030;-75
2023/12/11 06:38:54;;;;;;;9.15;6.40;;;;;;;17.70;31.59;98956.56;4993279;28;20049;-76
2023/12/11 06:41:20;;;;;;;8.93;6.60;;;;;;;18.31;30.71;98940.66;4961763;28;20405;-75
2023/12/11 06:43:47;;;;;;;9.75;6.65;;;;;;;18.79;30.21;98947.00;4961245;28;20034;-74
2023/12/11 06:46:13;;;;;;;8.95;6.72;;;;;;;19.12;29.79;98935.63;4977308;28;20095;-76
2023/12/11 06:48:38;;;;;;;12.02;7.00;;;;;;;19.39;29.59;98942.34;4994896;28;20481;-75
2023/12/11 06:51:04;;;;;;;9.65;7.25;;;;;;;19.53;29.76;98949.59;4993521;28;20038;-75
2023/12/11 06:53:30;;;;;;;11.00;7.50;;;;;;;19.51;29.63;98953.41;4977488;28;20080;-75
2023/12/11 06:55:55;;;;;;;13.15;8.10;;;;;;;19.46;29.96;98950.44;4961132;28;20058;-77
2023/12/11 06:58:21;;;;;;;12.75;8.00;;;;;;;19.33;30.16;98959.72;4993349;28;20042;-74
2023/12/11 07:00:46;;;;;;;13.35;8.15;;;;;;;19.29;30.39;98952.28;4993228;28;20459;-75
2023/12/11 07:03:12;;;;;;;10.40;7.53;;;;;;;19.41;30.32;98966.81;4993192;28;20114;-75
2023/12/11 07:05:41;;;;;;;11.57;8.43;;;;;;;19.42;30.46;98967.66;4994282;28;20061;-75
2023/12/11 07:08:07;;;;;;;10.55;7.60;;;;;;;19.38;30.52;98964.50;4977132;28;20038;-74
2023/12/11 07:10:32;;;;;;;10.07;7.35;;;;;;;19.28;30.75;98967.34;4992882;28;20030;-76
2023/12/11 07:12:58;;;;;;;12.00;7.97;;;;;;;19.43;30.46;98971.94;4977207;28;20041;-75
2023/12/11 07:15:24;;;;;;;10.93;7.30;;;;;;;19.33;30.64;98975.59;4960876;28;20034;-75
2023/12/11 07:17:49;;;;;;;9.95;7.28;;;;;;;19.21;30.85;98971.63;4992801;28;20478;-76
2023/12/11 07:20:15;;;;;;;10.55;7.13;;;;;;;18.51;31.77;98974.72;4976630;28;20037;-76
2023/12/11 07:22:40;;;;;;;11.32;7.28;;;;;;;18.02;32.00;98984.16;4960281;28;20035;-75
2023/12/11 07:25:06;;;;;;;10.10;7.28;;;;;;;17.29;32.79;98972.16;4976555;28;20022;-75
2023/12/11 07:27:33;;;;;;;13.25;7.65;;;;;;;16.65;33.65;98966.16;4975988;28;20128;-75
2023/12/11 07:29:59;;;;;;;11.48;7.97;;;;;;;16.13;34.12;98977.34;4976808;28;20081;-76
2023/12/11 07:32:25;;;;;;;11.70;7.97;;;;;;;15.62;34.96;98982.06;5008543;28;20027;-75
2023/12/11 07:34:51;;;;;;;11.13;7.68;;;;;;;15.12;35.90;98980.53;4960272;28;20084;-75
2023/12/11 07:37:16;;;;;;;14.68;8.80;;;;;;;14.69;36.57;98981.78;4976824;28;20030;-75
2023/12/11 07:39:42;;;;;;;17.02;10.02;;;;;;;14.38;36.68;98994.16;4975582;28;20110;-76
2023/12/11 07:42:07;;;;;;;15.00;9.57;;;;;;;14.00;37.49;98991.28;4976370;28;20037;-76
2023/12/11 07:44:33;;;;;;;14.50;10.00;;;;;;;13.66;38.08;98986.31;4992357;28;20028;-75
2023/12/11 07:46:59;;;;;;;15.23;10.68;;;;;;;13.45;38.47;98996.81;4959361;28;20069;-75
2023/12/11 07:49:25;;;;;;;19.92;12.07;;;;;;;13.23;38.81;98991.69;4992106;28;20035;-75
2023/12/11 07:51:52;;;;;;;19.58;11.50;;;;;;;13.35;38.58;98990.69;4992168;28;20054;-76
2023/12/11 07:54:18;;;;;;;19.25;11.98;;;;;;;13.46;38.63;98980.13;4975971;28;20034;-76
2023/12/11 07:56:43;;;;;;;19.77;11.60;;;;;;;13.72;38.50;98984.94;4959985;28;20042;-77
2023/12/11 07:59:10;;;;;;;16.85;11.55;;;;;;;13.83;38.44;98990.09;4975915;28;20029;-76
2023/12/11 08:01:35;;;;;;;19.13;12.48;;;;;;;13.67;38.64;98993.19;4975814;28;20038;-75
2023/12/11 08:04:01;;;;;;;24.92;13.13;;;;;;;14.01;38.12;98985.06;4993236;28;20517;-75
2023/12/11 08:06:27;;;;;;;21.25;13.13;;;;;;;14.26;38.04;98988.16;4975877;28;20041;-76
2023/12/11 08:08:52;;;;;;;21.27;13.05;;;;;;;14.25;37.96;98997.03;4975913;28;20031;-75
2023/12/11 08:11:20;;;;;;;22.17;13.55;;;;;;;13.93;38.30;99006.72;4992101;28;20030;-76
2023/12/11 08:13:45;;;;;;;19.98;12.27;;;;;;;13.72;38.53;99011.19;4959982;28;20042;-75
2023/12/11 08:16:11;;;;;;;18.88;12.88;;;;;;;13.72;38.36;98993.63;4959159;28;20538;-75
2023/12/11 08:18:37;;;;;;;24.15;12.60;;;;;;;14.05;38.01;98989.06;4975876;28;20064;-75
2023/12/11 08:21:03;;;;;;;27.40;13.68;;;;;;;14.28;37.81;98991.50;4959613;28;20042;-75
2023/12/11 08:23:29;;;;;;;26.63;13.45;;;;;;;14.37;37.43;98987.22;4959578;28;20097;-74
2023/12/11 08:25:54;;;;;;;23.90;13.70;;;;;;;14.71;36.89;98985.09;4974977;28;20035;-75
2023/12/11 08:28:20;;;;;;;24.95;13.50;;;;;;;14.92;36.92;98976.25;4975489;28;20042;-76
2023/12/11 08:30:45;;;;;;;19.13;12.93;;;;;;;14.94;37.05;98976.94;4991769;28;20041;-74
2023/12/11 08:33:12;;;;;;;23.33;13.00;;;;;;;14.84;36.74;98966.44;4975595;28;20042;-78
2023/12/11 08:35:38;;;;;;;23.95;13.82;;;;;;;14.72;37.04;98973.63;4959650;28;20026;-78
2023/12/11 08:38:03;;;;;;;23.42;13.88;;;;;;;14.38;37.38;98978.41;4975867;28;20049;-79
2023/12/11 08:40:29;;;;;;;26.17;13.80;;;;;;;14.28;37.74;98979.19;4959575;28;20035;-80
2023/12/11 08:42:54;;;;;;;20.65;12.85;;;;;;;14.16;37.90;98976.81;4959430;28;20076;-80
2023/12/11 08:45:20;;;;;;;21.42;13.20;;;;;;;13.98;38.09;98960.88;4959063;28;20494;-80
2023/12/11 08:47:46;;;;;;;21.77;13.52;;;;;;;13.93;38.17;98962.13;4959605;28;20064;-81
2023/12/11 08:50:11;;;;;;;23.48;13.25;;;;;;;13.91;38.30;98960.56;4959852;28;20441;-81
2023/12/11 08:52:37;;;;;;;25.48;13.23;;;;;;;13.84;38.40;98947.16;4963500;28;20074;-77
2023/12/11 08:55:04;;;;;;;23.55;13.32;;;;;;;13.74;38.70;98941.88;4979783;28;20085;-78
2023/12/11 08:57:29;;;;;;;22.88;12.30;;;;;;;13.71;38.60;98941.28;4979761;28;20026;-78
2023/12/11 08:59:55;;;;;;;20.15;12.07;;;;;;;13.60;38.95;98949.25;4963519;28;20484;-78
2023/12/11 09:02:20;;;;;;;19.73;12.18;;;;;;;13.38;39.38;98948.47;4979511;28;20398;-78
2023/12/11 09:04:46;;;;;;;19.55;12.65;;;;;;;13.29;39.53;98941.34;4963049;28;20022;-76
2023/12/11 09:07:11;;;;;;;26.90;13.20;;;;;;;13.35;39.36;98939.06;4962952;28;20070;-77
2023/12/11 09:09:38;;;;;;;19.08;12.65;;;;;;;13.34;39.49;98939.19;4963048;28;20030;-75
2023/12/11 09:12:05;;;;;;;20.38;13.02;;;;;;;13.55;39.21;98936.53;4979456;28;20034;-79
2023/12/11 09:14:31;;;;;;;21.30;13.38;;;;;;;13.59;39.11;98943.19;4995346;28;20116;-77
2023/12/11 09:16:56;;;;;;;26.58;13.73;;;;;;;13.44;39.27;98942.72;4962889;28;20121;-77
2023/12/11 09:19:22;;;;;;;23.80;13.95;;;;;;;13.21;39.65;98944.63;4978794;28;20561;-77
2023/12/11 09:21:49;;;;;;;24.20;13.75;;;;;;;12.94;40.26;98943.34;4995178;28;20117;-76
2023/12/11 09:24:15;;;;;;;21.98;14.60;;;;;;;12.75;40.75;98948.44;4962408;28;20122;-76
2023/12/11 09:26:41;;;;;;;23.30;14.65;;;;;;;12.56;40.80;98949.09;4995268;28;20091;-77
2023/12/11 09:29:06;;;;;;;21.25;14.15;;;;;;;12.35;41.40;98947.28;4978779;28;20042;-77
2023/12/11 09:31:32;;;;;;;26.70;14.50;;;;;;;12.29;41.49;98958.22;4995101;28;20121;-77
2023/12/11 09:33:57;;;;;;;26.58;14.23;;;;;;;12.22;41.46;98957.03;4962423;28;20088;-79
2023/12/11 09:36:23;;;;;;;29.98;15.90;;;;;;;12.14;41.66;98952.41;4979009;28;20038;-77
2023/12/11 09:38:48;;;;;;;29.60;15.82;;;;;;;12.64;40.86;98939.66;4977868;28;20073;-77
2023/12/11 09:41:14;;;;;;;26.23;15.63;;;;;;;14.35;38.15;98942.72;4978755;28;20070;-77
2023/12/11 09:43:40;;;;;;;26.35;15.57;;;;;;;14.98;36.98;98937.09;4994483;28;20110;-76
2023/12/11 09:46:07;;;;;;;24.85;15.55;;;;;;;15.43;36.38;98934.78;4978242;28;20500;-76
2023/12/11 09:48:33;;;;;;;21.13;14.07;;;;;;;17.44;33.01;98929.38;4962180;28;20034;-79
2023/12/11 09:50:58;;;;;;;23.30;14.75;;;;;;;17.90;32.35;98929.97;4978218;28;20030;-74
2023/12/11 09:53:26;;;;;;;28.63;14.38;;;;;;;19.07;30.55;98925.53;4962103;28;20445;-78
2023/12/11 09:55:51;;;;;;;29.33;14.90;;;;;;;20.11;29.21;98920.25;4977778;28;20038;-78
2023/12/11 09:58:17;;;;;;;23.73;15.07;;;;;;;20.78;27.84;98917.03;4962316;28;20038;-76
2023/12/11 10:00:42;;;;;;;27.27;15.02;;;;;;;21.61;26.97;98922.38;4962005;28;20038;-76
2023/12/11 10:03:08;;;;;;;28.50;15.13;;;;;;;22.59;25.86;98908.78;4961272;28;20038;-75
2023/12/11 10:05:35;;;;;;;24.25;15.32;;;;;;;23.16;25.00;98901.69;4962689;28;20472;-76
2023/12/11 10:08:01;;;;;;;23.77;14.45;;;;;;;23.24;24.96;98904.19;4962510;28;20022;-78
2023/12/11 10:10:28;;;;;;;25.73;15.60;;;;;;;23.42;24.47;98905.53;4962024;28;20462;-76
2023/12/11 10:12:54;;;;;;;27.02;16.33;;;;;;;22.78;25.09;98907.31;4962097;28;20492;-74
2023/12/11 10:15:27;;;;;;;29.23;16.77;;;;;;;22.03;25.99;98910.22;4977455;28;20038;-76
2023/12/11 10:18:06;;;;;;;27.05;17.05;;;;;;;21.30;26.42;98895.94;4961315;28;20069;-76
2023/12/11 10:20:37;;;;;;;29.42;17.05;;;;;;;20.48;27.64;98896.66;4994319;28;20038;-76
2023/12/11 10:23:22;;;;;;;29.55;17.55;;;;;;;19.65;28.51;98899.72;4978439;28;20501;-75
2023/12/11 10:25:49;;;;;;;31.27;18.25;;;;;;;18.97;29.48;98901.06;4961970;28;20081;-76
2023/12/11 10:28:16;;;;;;;28.63;18.92;;;;;;;18.55;30.18;98904.66;4961329;28;20035;-76
2023/12/11 10:30:54;;;;;;;38.67;18.95;;;;;;;18.00;30.90;98903.44;4961713;28;20038;-78
2023/12/11 10:33:21;;;;;;;30.23;18.33;;;;;;;17.65;31.35;98895.50;4994380;28;20026;-78
2023/12/11 10:35:46;;;;;;;32.00;18.83;;;;;;;17.16;32.38;98905.81;4961150;28;20049;-76
2023/12/11 10:38:22;;;;;;;35.28;18.38;;;;;;;16.53;33.49;98909.41;4961642;28;20116;-78
2023/12/11 10:40:49;;;;;;;27.50;18.42;;;;;;;16.08;34.46;98909.31;4977681;28;20041;-78
2023/12/11 10:43:15;;;;;;;32.17;18.38;;;;;;;15.71;34.84;98907.53;4977746;28;20093;-78
2023/12/11 10:45:40;;;;;;;30.10;18.35;;;;;;;15.64;35.06;98901.19;4993243;28;20050;-78
2023/12/11 10:48:06;;;;;;;34.50;18.83;;;;;;;15.33;35.55;98901.44;4977532;28;20125;-78
2023/12/11 10:50:32;;;;;;;27.58;17.40;;;;;;;15.17;36.07;98896.78;4977469;28;20042;-78
2023/12/11 10:53:00;;;;;;;26.27;17.63;;;;;;;14.90;36.41;98886.22;4961196;28;20030;-78
2023/12/11 10:55:26;;;;;;;31.45;18.77;;;;;;;14.67;36.84;98862.84;4961222;28;20039;-77
2023/12/11 10:57:51;;;;;;;27.70;18.23;;;;;;;14.56;37.11;98863.78;4961474;28;20041;-76
2023/12/11 11:00:17;;;;;;;29.45;18.00;;;;;;;14.28;37.61;98861.03;4977234;28;20545;-77
2023/12/11 11:02:46;;;;;;;30.08;18.85;;;;;;;14.09;38.13;98872.34;4961205;28;20057;-79
2023/12/11 11:05:12;;;;;;;31.65;18.73;;;;;;;14.02;38.35;98859.91;4977109;28;20026;-76
2023/12/11 11:07:43;;;;;;;30.00;18.58;;;;;;;13.94;38.64;98852.72;4977194;28;20030;-76
2023/12/11 11:10:33;;;;;;;32.08;18.02;;;;;;;13.88;38.68;98855.88;4961562;28;20026;-76
2023/12/11 11:13:27;;;;;;;26.88;17.27;;;;;;;13.63;39.28;98854.56;4915415;29;20075;-76
2023/12/11 11:15:53;;;;;;;29.13;18.33;;;;;;;13.37;39.79;98855.84;4912622;29;20087;-79
2023/12/11 11:18:19;;;;;;;26.23;17.25;;;;;;;13.02;40.26;98856.22;4868185;29;20051;-77
2023/12/11 11:21:11;;;;;;;31.85;18.08;;;;;;;12.66;41.61;98850.47;4867927;29;20040;-76
2023/12/11 11:23:42;;;;;;;30.67;19.02;;;;;;;12.46;41.79;98858.22;4915223;29;20108;-76